Time;durP1;ratioP1;P1;durP2;ratioP2;P2;SDS_P1;SDS_P2;PMS_P1;PMS_P2;Temp;Humidity;BMP_temperature;BMP_pressure;BME280_temperature;BME280_humidity;BME280_pressure;Samples;Min_cycle;Max_cycle;Signal;HPM_P1;HPM_P2
2023/03/25 00:00:12;;;;;;;4.10;1.60;;;8.10;1.00;;;;;;5056268;28;20459;-56
2023/03/25 00:02:48;;;;;;;4.83;2.50;;;8.20;1.00;;;;;;5056361;28;20535;-60
2023/03/25 00:05:17;;;;;;;4.53;2.23;;;8.20;1.00;;;;;;5053897;28;20458;-59
2023/03/25 00:07:45;;;;;;;4.60;2.40;;;8.10;1.00;;;;;;5056312;28;20490;-59
2023/03/25 00:10:14;;;;;;;4.40;2.00;;;8.10;1.00;;;;;;5057770;28;20480;-59
2023/03/25 00:12:42;;;;;;;3.60;1.90;;;8.10;1.00;;;;;;5057103;28;20493;-54
2023/03/25 00:15:12;;;;;;;3.07;2.30;;;8.10;1.00;;;;;;5057395;28;20462;-59
2023/03/25 00:17:39;;;;;;;3.33;2.00;;;8.10;1.00;;;;;;5057150;28;20770;-57
2023/03/25 00:20:09;;;;;;;3.40;2.10;;;8.00;1.00;;;;;;5057183;28;20437;-59
2023/03/25 00:22:39;;;;;;;5.50;2.70;;;8.10;1.00;;;;;;5057477;28;20454;-57
2023/03/25 00:25:08;;;;;;;5.50;2.50;;;8.10;1.00;;;;;;5056715;28;20458;-57
2023/03/25 00:27:35;;;;;;;3.90;2.07;;;8.10;1.00;;;;;;5055582;28;21003;-55
2023/03/25 00:30:03;;;;;;;7.33;2.40;;;8.10;1.00;;;;;;5055411;28;20496;-59
2023/03/25 00:32:30;;;;;;;7.60;2.33;;;8.20;1.00;;;;;;5057261;28;20906;-55
2023/03/25 00:34:58;;;;;;;6.60;2.77;;;8.30;1.00;;;;;;5057096;28;20758;-56
2023/03/25 00:37:27;;;;;;;4.93;2.00;;;8.30;1.00;;;;;;5056885;28;20527;-53
2023/03/25 00:39:54;;;;;;;4.20;2.40;;;8.30;1.00;;;;;;5062218;28;20453;-54
2023/03/25 00:42:24;;;;;;;3.37;2.10;;;8.30;1.00;;;;;;5076894;28;20461;-54
2023/03/25 00:44:52;;;;;;;4.20;2.30;;;8.30;1.00;;;;;;5076914;28;20465;-56
2023/03/25 00:47:20;;;;;;;4.93;2.47;;;8.20;1.00;;;;;;5077072;28;20489;-57
2023/03/25 00:49:48;;;;;;;4.47;2.10;;;8.20;1.00;;;;;;5076173;28;20461;-55
2023/03/25 00:52:15;;;;;;;8.10;2.20;;;8.10;1.00;;;;;;5075960;28;20464;-54
2023/03/25 00:54:44;;;;;;;4.07;2.20;;;8.10;1.00;;;;;;5077022;28;20849;-53
2023/03/25 00:57:11;;;;;;;4.50;2.40;;;8.20;1.00;;;;;;5078291;28;20526;-53
2023/03/25 00:59:39;;;;;;;4.17;2.33;;;8.10;1.00;;;;;;5075218;28;20466;-54
2023/03/25 01:02:06;;;;;;;3.33;2.20;;;8.10;1.00;;;;;;5060584;28;20568;-54
2023/03/25 01:04:33;;;;;;;6.87;2.40;;;8.20;1.00;;;;;;5070387;28;20515;-55
2023/03/25 01:07:02;;;;;;;6.20;2.30;;;8.20;1.00;;;;;;5080475;28;20467;-56
2023/03/25 01:09:29;;;;;;;4.40;2.30;;;8.20;1.00;;;;;;5080570;28;20465;-55
2023/03/25 01:11:58;;;;;;;5.67;2.30;;;8.20;1.00;;;;;;5080389;28;20467;-54
2023/03/25 01:14:26;;;;;;;7.73;2.50;;;8.20;1.00;;;;;;5080025;28;20461;-56
2023/03/25 01:16:54;;;;;;;5.20;2.70;;;8.20;1.00;;;;;;5080447;28;20515;-58
2023/03/25 01:19:21;;;;;;;5.03;2.50;;;8.20;1.00;;;;;;5080536;28;20431;-54
2023/03/25 01:21:49;;;;;;;3.80;2.30;;;8.20;1.00;;;;;;5063103;28;20464;-53
2023/03/25 01:24:16;;;;;;;4.87;2.20;;;8.30;1.00;;;;;;5060443;28;20754;-51
2023/03/25 01:26:44;;;;;;;5.27;2.10;;;8.30;1.00;;;;;;5060299;28;20469;-54
2023/03/25 01:29:15;;;;;;;6.50;2.70;;;8.20;1.00;;;;;;5060273;28;20568;-54
2023/03/25 01:31:42;;;;;;;5.80;2.30;;;8.30;1.00;;;;;;5070981;28;20461;-57
2023/03/25 01:34:09;;;;;;;6.13;2.73;;;8.30;1.00;;;;;;5080303;28;20461;-52
2023/03/25 01:36:38;;;;;;;6.07;2.23;;;8.30;1.00;;;;;;5063901;28;20926;-54
2023/03/25 01:39:06;;;;;;;4.70;2.70;;;8.30;1.00;;;;;;5059944;28;20560;-58
2023/03/25 01:41:35;;;;;;;7.20;2.40;;;8.30;1.00;;;;;;5065438;28;20941;-57
2023/03/25 01:44:04;;;;;;;5.23;2.50;;;8.30;1.00;;;;;;5079679;28;20483;-53
2023/03/25 01:46:33;;;;;;;4.70;2.17;;;8.40;1.00;;;;;;5079732;28;20485;-57
2023/03/25 01:49:03;;;;;;;4.80;2.20;;;8.40;1.00;;;;;;5079607;28;20492;-57
2023/03/25 01:51:32;;;;;;;5.37;1.77;;;8.30;1.00;;;;;;5079225;28;20518;-59
2023/03/25 01:54:00;;;;;;;4.60;2.30;;;8.40;1.00;;;;;;5079663;28;20465;-55
2023/03/25 01:56:33;;;;;;;5.60;2.30;;;8.40;1.00;;;;;;5079548;28;20476;-57
2023/03/25 01:59:04;;;;;;;5.53;2.40;;;8.40;1.00;;;;;;5079365;28;20464;-57
2023/03/25 02:01:35;;;;;;;5.07;2.73;;;8.30;1.00;;;;;;5079462;28;20472;-60
2023/03/25 02:04:10;;;;;;;6.73;2.40;;;8.30;1.00;;;;;;5080072;28;20828;-57
2023/03/25 02:06:43;;;;;;;4.80;2.57;;;8.30;1.00;;;;;;5079167;28;20906;-58
2023/03/25 02:09:13;;;;;;;6.00;2.50;;;8.30;1.00;;;;;;5078965;28;20489;-57
2023/03/25 02:11:40;;;;;;;5.23;2.93;;;8.40;1.00;;;;;;5079712;28;20836;-57
2023/03/25 02:14:10;;;;;;;4.30;2.60;;;8.40;1.00;;;;;;5079642;28;20457;-61
2023/03/25 02:16:47;;;;;;;5.27;2.40;;;8.40;1.00;;;;;;5078844;28;20814;-60
2023/03/25 02:19:53;;;;;;;5.40;2.20;;;8.40;1.00;;;;;;5060925;28;20466;-62
2023/03/25 02:22:48;;;;;;;4.77;2.00;;;8.30;1.00;;;;;;5059742;28;20462;-60
2023/03/25 02:25:58;;;;;;;4.27;2.40;;;8.30;1.00;;;;;;5058970;28;20981;-62
2023/03/25 02:28:35;;;;;;;5.63;2.17;;;8.30;1.00;;;;;;5044800;28;20489;-61
2023/03/25 02:31:31;;;;;;;6.03;2.50;;;8.30;1.00;;;;;;5079156;28;20786;-60
2023/03/25 02:34:33;;;;;;;4.57;2.30;;;8.40;1.00;;;;;;5078889;28;20464;-62
2023/03/25 02:37:45;;;;;;;3.30;2.33;;;8.30;1.00;;;;;;5079047;28;20456;-63
2023/03/25 02:40:19;;;;;;;6.70;2.23;;;8.40;1.00;;;;;;5076212;28;20457;-62
2023/03/25 02:42:50;;;;;;;4.43;2.60;;;8.30;1.00;;;;;;5059620;28;20458;-63
2023/03/25 02:45:23;;;;;;;3.90;2.20;;;8.30;1.00;;;;;;5078373;28;20454;-61
2023/03/25 02:47:53;;;;;;;4.53;2.43;;;8.30;1.00;;;;;;5072259;28;20765;-62
2023/03/25 02:50:27;;;;;;;4.60;1.90;;;8.30;99.90;;;;;;5058277;28;20890;-61
2023/03/25 02:52:57;;;;;;;5.30;1.73;;;8.30;99.90;;;;;;5058208;28;20462;-63
2023/03/25 02:55:29;;;;;;;3.57;2.13;;;8.30;99.90;;;;;;5076159;28;20469;-63
2023/03/25 02:57:58;;;;;;;4.80;2.30;;;8.30;99.90;;;;;;5078439;28;20759;-62
2023/03/25 03:00:27;;;;;;;7.93;2.20;;;8.30;99.90;;;;;;5078772;28;20465;-62
2023/03/25 03:02:58;;;;;;;4.33;1.97;;;8.30;99.90;;;;;;5078291;28;20472;-63
2023/03/25 03:05:27;;;;;;;5.07;2.10;;;8.30;99.90;;;;;;5076749;28;20780;-62
2023/03/25 03:08:07;;;;;;;4.13;2.00;;;8.30;99.90;;;;;;5077577;28;20462;-63
2023/03/25 03:10:42;;;;;;;3.60;1.93;;;8.30;99.90;;;;;;5078787;28;20515;-63
2023/03/25 03:13:20;;;;;;;4.10;2.07;;;8.20;99.90;;;;;;5078250;28;20464;-62
2023/03/25 03:15:56;;;;;;;3.20;2.10;;;8.30;99.90;;;;;;5076138;28;20598;-63
2023/03/25 03:18:36;;;;;;;5.90;2.10;;;8.30;99.90;;;;;;5078503;28;20530;-63
2023/03/25 03:21:11;;;;;;;7.30;2.10;;;8.30;99.90;;;;;;5077354;28;20488;-63
2023/03/25 03:23:50;;;;;;;4.10;2.40;;;8.30;99.90;;;;;;5078330;28;20873;-63
2023/03/25 03:26:27;;;;;;;4.83;2.53;;;8.20;99.90;;;;;;5075772;28;20457;-58
2023/03/25 03:29:01;;;;;;;3.53;2.30;;;8.20;99.90;;;;;;5077262;28;20504;-63
2023/03/25 03:31:36;;;;;;;5.87;2.43;;;8.20;99.90;;;;;;5077088;28;20468;-63
2023/03/25 03:34:09;;;;;;;3.60;2.60;;;8.20;99.90;;;;;;5078575;28;20457;-63
2023/03/25 03:36:43;;;;;;;5.40;2.40;;;8.20;99.90;;;;;;5076128;28;20519;-62
2023/03/25 03:39:15;;;;;;;5.50;2.33;;;8.20;1.00;;;;;;5077603;28;20476;-61
2023/03/25 03:41:49;;;;;;;5.93;2.90;;;8.20;1.00;;;;;;5078156;28;20910;-63
2023/03/25 03:44:20;;;;;;;4.10;2.67;;;8.20;1.00;;;;;;5077821;28;20497;-63
2023/03/25 03:46:53;;;;;;;3.30;2.50;;;8.30;1.00;;;;;;5075708;28;20760;-63
2023/03/25 03:49:25;;;;;;;6.13;3.13;;;8.20;1.00;;;;;;5077506;28;20584;-60
2023/03/25 03:51:56;;;;;;;3.80;2.80;;;8.30;1.00;;;;;;5076871;28;20894;-62
2023/03/25 03:54:26;;;;;;;5.53;3.37;;;8.20;1.00;;;;;;5077825;28;20464;-61
2023/03/25 03:57:00;;;;;;;5.10;2.93;;;8.20;1.00;;;;;;5075128;28;20903;-63
2023/03/25 03:59:37;;;;;;;6.80;3.43;;;8.20;1.00;;;;;;5077047;28;20465;-63
2023/03/25 04:02:13;;;;;;;5.40;2.90;;;8.20;1.00;;;;;;5078063;28;20563;-61
2023/03/25 04:04:41;;;;;;;8.50;2.97;;;8.20;1.00;;;;;;5077367;28;20908;-62
2023/03/25 04:07:14;;;;;;;5.20;2.80;;;8.20;1.00;;;;;;5076811;28;20563;-60
2023/03/25 04:09:53;;;;;;;3.30;2.40;;;8.30;1.00;;;;;;5077003;28;20496;-63
2023/03/25 04:12:26;;;;;;;7.77;2.53;;;8.20;1.00;;;;;;5069008;28;20469;-61
2023/03/25 04:14:55;;;;;;;9.20;3.53;;;8.20;1.00;;;;;;5057176;28;20466;-59
2023/03/25 04:17:22;;;;;;;4.80;2.70;;;8.20;1.00;;;;;;5057238;28;20766;-63
2023/03/25 04:19:52;;;;;;;8.37;3.50;;;8.20;99.90;;;;;;5057349;28;20462;-63
2023/03/25 04:22:20;;;;;;;3.50;2.47;;;8.20;1.00;;;;;;5058205;28;20533;-63
2023/03/25 04:24:50;;;;;;;8.87;3.97;;;8.10;1.00;;;;;;5056948;28;20488;-62
2023/03/25 04:27:18;;;;;;;4.30;2.80;;;8.10;1.00;;;;;;5056903;28;20467;-60
2023/03/25 04:29:47;;;;;;;10.13;3.37;;;8.10;1.00;;;;;;5056580;28;20519;-62
2023/03/25 04:32:16;;;;;;;5.60;2.37;;;8.00;1.00;;;;;;5057214;28;20462;-63
2023/03/25 04:34:45;;;;;;;6.43;2.83;;;8.00;1.00;;;;;;5056391;28;20458;-63
2023/03/25 04:37:13;;;;;;;6.10;2.60;;;7.90;1.00;;;;;;5057867;28;20466;-61
2023/03/25 04:39:40;;;;;;;7.30;3.10;;;7.90;1.00;;;;;;5057176;28;20458;-61
2023/03/25 04:42:12;;;;;;;5.93;3.20;;;7.90;1.00;;;;;;5057107;28;20883;-63
2023/03/25 04:44:39;;;;;;;5.40;3.03;;;7.90;1.00;;;;;;5056659;28;20556;-63
2023/03/25 04:47:13;;;;;;;7.30;3.33;;;7.90;1.00;;;;;;5064771;28;20468;-63
2023/03/25 04:49:43;;;;;;;7.83;2.90;;;7.90;1.00;;;;;;5076575;28;20542;-63
2023/03/25 04:52:11;;;;;;;10.47;3.20;;;7.90;1.00;;;;;;5076962;28;20522;-61
2023/03/25 04:54:38;;;;;;;5.93;3.47;;;7.90;1.00;;;;;;5076963;28;20725;-61
2023/03/25 04:57:07;;;;;;;8.10;3.20;;;7.90;1.00;;;;;;5076478;28;20467;-63
2023/03/25 04:59:34;;;;;;;6.30;2.97;;;7.90;1.00;;;;;;5076756;28;20511;-60
2023/03/25 05:02:04;;;;;;;8.37;3.10;;;7.90;1.00;;;;;;5076488;28;20457;-60
2023/03/25 05:04:33;;;;;;;8.60;2.70;;;8.00;1.00;;;;;;5066605;28;20809;-60
2023/03/25 05:07:01;;;;;;;6.77;3.17;;;7.90;1.00;;;;;;5056384;28;20467;-60
2023/03/25 05:09:29;;;;;;;6.80;2.40;;;7.90;1.00;;;;;;5055892;28;20498;-60
2023/03/25 05:11:56;;;;;;;3.83;2.50;;;7.90;1.00;;;;;;5056881;28;20484;-63
2023/03/25 05:14:23;;;;;;;4.53;2.60;;;7.90;1.00;;;;;;5056867;28;20841;-63
2023/03/25 05:16:50;;;;;;;4.80;2.40;;;7.90;1.00;;;;;;5056868;28;20468;-63
2023/03/25 05:19:19;;;;;;;7.87;2.80;;;7.90;1.00;;;;;;5056914;28;20465;-63
2023/03/25 05:21:47;;;;;;;5.30;3.13;;;7.90;1.00;;;;;;5056222;28;20506;-62
2023/03/25 05:24:14;;;;;;;5.70;2.70;;;7.90;1.00;;;;;;5056806;28;20520;-62
2023/03/25 05:26:43;;;;;;;7.47;2.20;;;7.90;1.00;;;;;;5055102;28;20443;-56
2023/03/25 05:29:12;;;;;;;7.60;2.97;;;7.90;1.00;;;;;;5061523;28;20496;-61
2023/03/25 05:31:40;;;;;;;12.33;3.10;;;7.80;1.00;;;;;;5076743;28;20464;-58
2023/03/25 05:34:08;;;;;;;7.80;2.40;;;7.70;1.00;;;;;;5076182;28;20499;-61
2023/03/25 05:36:36;;;;;;;4.93;2.87;;;7.70;1.00;;;;;;5076741;28;20457;-61
2023/03/25 05:39:04;;;;;;;6.73;4.47;;;7.60;1.00;;;;;;5075265;28;20453;-63
2023/03/25 05:41:32;;;;;;;6.47;2.70;;;7.60;1.00;;;;;;5075467;28;20879;-61
2023/03/25 05:44:00;;;;;;;6.57;3.50;;;7.60;1.00;;;;;;5076386;28;20881;-61
2023/03/25 05:46:29;;;;;;;8.13;3.07;;;7.50;1.00;;;;;;5080091;28;20928;-61
2023/03/25 05:48:59;;;;;;;5.90;3.43;;;7.50;1.00;;;;;;5079219;28;20474;-63
2023/03/25 05:51:27;;;;;;;5.67;3.50;;;7.50;1.00;;;;;;5076998;28;20461;-63
2023/03/25 05:53:54;;;;;;;10.27;3.40;;;7.50;10.20;;;;;;5079678;28;20737;-62
2023/03/25 05:56:24;;;;;;;4.27;2.60;;;7.50;91.60;;;;;;5079969;28;20887;-62
2023/03/25 05:58:52;;;;;;;7.23;3.17;;;7.50;99.90;;;;;;5079994;28;20560;-60
2023/03/25 06:01:21;;;;;;;7.10;3.27;;;7.50;99.90;;;;;;5079511;28;20897;-60
2023/03/25 06:03:49;;;;;;;6.60;4.07;;;7.40;99.90;;;;;;5059895;28;20451;-62
2023/03/25 06:06:18;;;;;;;10.63;4.07;;;7.50;99.90;;;;;;5056250;28;20461;-61
2023/03/25 06:08:48;;;;;;;5.53;3.30;;;7.40;99.90;;;;;;5055954;28;20435;-59
2023/03/25 06:11:17;;;;;;;6.10;2.87;;;7.50;99.90;;;;;;5057278;28;20881;-58
2023/03/25 06:13:49;;;;;;;12.17;3.60;;;7.40;99.90;;;;;;5058368;28;20779;-56
2023/03/25 06:16:18;;;;;;;7.27;3.63;;;7.40;99.90;;;;;;5057084;28;20487;-60
2023/03/25 06:18:49;;;;;;;4.47;2.83;;;7.50;99.90;;;;;;5058673;28;20466;-60
2023/03/25 06:21:18;;;;;;;6.10;3.33;;;7.50;99.90;;;;;;5056444;28;20463;-56
2023/03/25 06:23:46;;;;;;;5.10;3.00;;;7.50;99.90;;;;;;5057069;28;20872;-58
2023/03/25 06:26:14;;;;;;;7.60;3.20;;;7.60;99.90;;;;;;5056448;28;20494;-57
2023/03/25 06:28:41;;;;;;;8.40;3.07;;;7.60;99.90;;;;;;5055777;28;20483;-59
2023/03/25 06:31:15;;;;;;;8.57;3.70;;;7.60;93.30;;;;;;5057213;28;20469;-60
2023/03/25 06:33:42;;;;;;;6.20;3.33;;;7.70;99.90;;;;;;5056642;28;20520;-61
2023/03/25 06:36:10;;;;;;;7.10;3.27;;;7.60;28.20;;;;;;5055939;28;20490;-64
2023/03/25 06:38:38;;;;;;;8.17;3.90;;;7.70;16.60;;;;;;5056856;28;20458;-64
2023/03/25 06:41:06;;;;;;;9.83;3.00;;;7.70;1.00;;;;;;5056909;28;20490;-64
2023/03/25 06:43:33;;;;;;;7.77;2.70;;;7.70;1.00;;;;;;5058003;28;20833;-65
2023/03/25 06:46:00;;;;;;;8.90;3.30;;;7.80;1.00;;;;;;5057596;28;20465;-63
2023/03/25 06:48:29;;;;;;;6.53;3.50;;;7.70;1.00;;;;;;5057435;28;20454;-62
2023/03/25 06:50:57;;;;;;;5.60;3.00;;;7.70;1.00;;;;;;5056301;28;20796;-64
2023/03/25 06:53:24;;;;;;;5.87;3.40;;;7.70;1.00;;;;;;5057396;28;20464;-64
2023/03/25 06:55:51;;;;;;;8.40;3.40;;;7.70;1.00;;;;;;5055033;28;20433;-62
2023/03/25 06:58:19;;;;;;;4.93;3.30;;;7.70;1.00;;;;;;5057322;28;20501;-64
2023/03/25 07:00:46;;;;;;;7.60;3.80;;;7.60;1.00;;;;;;5057003;28;20446;-64
2023/03/25 07:03:13;;;;;;;4.70;2.77;;;7.60;1.00;;;;;;5056930;28;20898;-64
2023/03/25 07:05:43;;;;;;;5.63;2.97;;;7.60;2.90;;;;;;5057718;28;20811;-64
2023/03/25 07:08:10;;;;;;;5.73;3.00;;;7.50;1.00;;;;;;5062397;28;20524;-63
2023/03/25 07:10:37;;;;;;;4.80;2.10;;;7.50;26.70;;;;;;5058424;28;20967;-64
2023/03/25 07:13:04;;;;;;;9.87;3.20;;;7.50;81.20;;;;;;5058407;28;20462;-65
2023/03/25 07:15:32;;;;;;;8.77;2.83;;;7.60;99.90;;;;;;5057654;28;20807;-65
2023/03/25 07:17:59;;;;;;;10.00;3.00;;;7.50;99.90;;;;;;5056632;28;20899;-64
2023/03/25 07:20:26;;;;;;;6.90;2.73;;;7.50;99.90;;;;;;5057294;28;20462;-65
2023/03/25 07:22:55;;;;;;;9.43;3.87;;;7.50;99.90;;;;;;5057528;28;20466;-63
2023/03/25 07:25:22;;;;;;;7.83;3.50;;;7.60;99.90;;;;;;5058420;28;20466;-65
2023/03/25 07:27:50;;;;;;;12.17;3.80;;;7.60;99.90;;;;;;5065526;28;20465;-64
2023/03/25 07:30:17;;;;;;;9.13;4.50;;;7.60;99.90;;;;;;5077653;28;20507;-61
2023/03/25 07:32:45;;;;;;;11.50;4.23;;;7.60;99.90;;;;;;5077020;28;20519;-62
2023/03/25 07:35:12;;;;;;;9.23;4.20;;;7.70;99.90;;;;;;5077344;28;20461;-63
2023/03/25 07:37:39;;;;;;;9.23;4.23;;;7.80;99.90;;;;;;5072585;28;20944;-63
2023/03/25 07:40:09;;;;;;;5.90;3.27;;;7.80;99.90;;;;;;5056401;28;20458;-57
2023/03/25 07:42:37;;;;;;;9.00;3.50;;;7.90;99.90;;;;;;5056196;28;20828;-63
2023/03/25 07:45:05;;;;;;;12.10;3.77;;;8.00;21.90;;;;;;5056257;28;20758;-61
2023/03/25 07:47:32;;;;;;;10.00;3.57;;;8.00;1.00;;;;;;5054943;28;20502;-63
2023/03/25 07:50:00;;;;;;;7.07;3.40;;;8.00;1.00;;;;;;5054649;28;20567;-63
2023/03/25 07:52:27;;;;;;;9.03;3.90;;;8.10;1.00;;;;;;5054631;28;20513;-63
2023/03/25 07:54:54;;;;;;;5.90;2.93;;;8.10;1.00;;;;;;5054304;28;20489;-61
2023/03/25 07:57:23;;;;;;;5.73;3.30;;;8.20;1.00;;;;;;5055465;28;20466;-62
2023/03/25 07:59:50;;;;;;;9.70;3.43;;;8.20;1.00;;;;;;5067798;28;20466;-62
2023/03/25 08:02:17;;;;;;;10.23;3.40;;;8.20;1.00;;;;;;5067737;28;20462;-62
2023/03/25 08:04:45;;;;;;;9.47;3.20;;;8.20;1.00;;;;;;5055767;28;20466;-62
2023/03/25 08:07:12;;;;;;;7.47;3.10;;;8.10;1.00;;;;;;5056550;28;20936;-60
2023/03/25 08:09:41;;;;;;;6.43;3.67;;;8.10;1.00;;;;;;5062526;28;20491;-62
2023/03/25 08:12:09;;;;;;;8.10;3.60;;;8.10;1.00;;;;;;5077304;28;20555;-61
2023/03/25 08:14:37;;;;;;;6.10;3.20;;;8.20;1.00;;;;;;5071418;28;20466;-62
2023/03/25 08:17:05;;;;;;;7.13;3.00;;;8.30;1.00;;;;;;5058143;28;20472;-62
2023/03/25 08:19:32;;;;;;;7.90;3.13;;;8.30;1.00;;;;;;5059235;28;20474;-61
2023/03/25 08:22:00;;;;;;;5.27;2.67;;;8.20;1.00;;;;;;5078422;28;20465;-61
2023/03/25 08:24:28;;;;;;;11.80;3.27;;;8.20;99.90;;;;;;5076199;28;20465;-61
2023/03/25 08:26:56;;;;;;;9.70;2.60;;;8.20;99.90;;;;;;5077102;28;20521;-61
2023/03/25 08:29:24;;;;;;;13.33;3.83;;;8.20;99.90;;;;;;5065824;28;20481;-62
2023/03/25 08:31:52;;;;;;;8.57;3.10;;;8.20;99.90;;;;;;5056546;28;20480;-62
2023/03/25 08:34:21;;;;;;;8.10;3.80;;;8.30;99.90;;;;;;5053941;28;20462;-63
2023/03/25 08:36:48;;;;;;;12.30;3.23;;;8.30;99.90;;;;;;5054698;28;20462;-63
2023/03/25 08:39:16;;;;;;;10.57;3.10;;;8.30;99.90;;;;;;5055516;28;20458;-63
2023/03/25 08:41:43;;;;;;;12.20;3.93;;;8.30;99.90;;;;;;5054349;28;20462;-64
2023/03/25 08:44:11;;;;;;;8.40;3.90;;;8.50;99.90;;;;;;5056079;28;20471;-64
2023/03/25 08:46:38;;;;;;;10.27;3.30;;;8.60;99.90;;;;;;5055097;28;20463;-64
2023/03/25 08:49:07;;;;;;;8.27;3.20;;;8.60;99.90;;;;;;5056834;28;20465;-64
2023/03/25 08:51:34;;;;;;;7.07;3.07;;;8.80;99.90;;;;;;5056303;28;20805;-64
2023/03/25 08:54:01;;;;;;;7.73;2.73;;;8.90;99.90;;;;;;5056668;28;20462;-65
2023/03/25 08:56:28;;;;;;;9.00;3.10;;;9.00;99.90;;;;;;5067164;28;20466;-64
2023/03/25 08:58:55;;;;;;;10.70;3.60;;;8.90;99.90;;;;;;5075850;28;20465;-64
2023/03/25 09:01:23;;;;;;;8.50;3.50;;;8.90;99.90;;;;;;5063708;28;20477;-64
2023/03/25 09:03:51;;;;;;;7.47;2.97;;;8.80;99.90;;;;;;5039066;28;20907;-65
2023/03/25 09:06:19;;;;;;;7.60;2.83;;;8.70;99.90;;;;;;5054301;28;20942;-65
2023/03/25 09:08:46;;;;;;;7.00;3.20;;;8.70;99.90;;;;;;5054463;28;20894;-66
2023/03/25 09:11:14;;;;;;;6.97;3.33;;;8.70;99.90;;;;;;5055698;28;20490;-65
2023/03/25 09:13:41;;;;;;;7.37;3.20;;;8.70;99.90;;;;;;5069451;28;20551;-65
2023/03/25 09:16:10;;;;;;;9.83;3.47;;;8.60;99.90;;;;;;5075270;28;20445;-65
2023/03/25 09:18:37;;;;;;;8.30;3.50;;;8.70;99.90;;;;;;5034795;28;20467;-62
2023/03/25 09:21:04;;;;;;;7.83;3.20;;;8.70;99.90;;;;;;5038794;28;20466;-65
2023/03/25 09:23:33;;;;;;;10.00;3.40;;;8.90;99.90;;;;;;5048853;28;20462;-65
2023/03/25 09:26:04;;;;;;;6.73;3.10;;;9.00;99.90;;;;;;5059213;28;20785;-65
2023/03/25 09:28:31;;;;;;;13.33;3.73;;;9.10;99.90;;;;;;5059063;28;20749;-64
2023/03/25 09:30:58;;;;;;;10.07;5.10;;;9.10;99.90;;;;;;5058926;28;20513;-65
2023/03/25 09:33:26;;;;;;;12.93;4.27;;;9.10;99.90;;;;;;5063071;28;20461;-64
2023/03/25 09:35:54;;;;;;;8.07;3.20;;;9.10;99.90;;;;;;5078880;28;20820;-64
2023/03/25 09:38:21;;;;;;;5.10;2.80;;;9.20;99.90;;;;;;5078393;28;20526;-64
2023/03/25 09:40:50;;;;;;;11.30;3.60;;;9.30;99.90;;;;;;5078053;28;20743;-63
2023/03/25 09:43:29;;;;;;;7.37;3.00;;;9.30;99.90;;;;;;5079358;28;20472;-64
2023/03/25 09:45:57;;;;;;;5.03;3.00;;;9.30;99.90;;;;;;5039108;28;20467;-63
2023/03/25 09:48:31;;;;;;;10.23;3.20;;;9.20;99.90;;;;;;5045830;28;20880;-65
2023/03/25 09:51:01;;;;;;;8.40;3.00;;;9.30;99.90;;;;;;5058437;28;20494;-61
2023/03/25 09:53:35;;;;;;;7.07;3.23;;;9.40;99.90;;;;;;5059281;28;20458;-62
2023/03/25 09:56:06;;;;;;;10.67;3.20;;;9.50;99.90;;;;;;5058548;28;20515;-62
2023/03/25 09:58:41;;;;;;;12.23;3.30;;;9.60;99.90;;;;;;5062680;28;20508;-63
2023/03/25 10:01:23;;;;;;;13.53;3.60;;;9.60;99.90;;;;;;5079932;28;20460;-63
2023/03/25 10:04:01;;;;;;;10.80;3.97;;;9.60;99.90;;;;;;5079679;28;20467;-63
2023/03/25 10:06:30;;;;;;;8.53;3.30;;;9.40;99.90;;;;;;5060339;28;20439;-64
2023/03/25 10:09:09;;;;;;;11.63;4.10;;;9.40;99.90;;;;;;5058474;28;20454;-64
2023/03/25 10:11:45;;;;;;;12.40;3.40;;;9.40;99.90;;;;;;5059707;28;20544;-64
2023/03/25 10:14:21;;;;;;;8.67;3.90;;;9.30;99.90;;;;;;5059599;28;20467;-64
2023/03/25 10:17:07;;;;;;;13.37;3.90;;;9.20;99.90;;;;;;5059782;28;20462;-65
2023/03/25 10:19:53;;;;;;;11.93;3.33;;;9.20;99.90;;;;;;5059016;28;20472;-64
2023/03/25 10:22:29;;;;;;;9.27;3.37;;;9.20;99.90;;;;;;5056256;28;20425;-64
2023/03/25 10:24:59;;;;;;;10.80;2.80;;;9.20;99.90;;;;;;5057598;28;20473;-65
2023/03/25 10:27:34;;;;;;;8.30;4.00;;;9.30;99.90;;;;;;5059832;28;20776;-64
2023/03/25 10:30:10;;;;;;;7.43;3.37;;;9.40;99.90;;;;;;5053863;28;20481;-64
2023/03/25 10:32:44;;;;;;;13.33;6.30;;;9.50;99.90;;;;;;5055938;28;20442;-64
2023/03/25 10:35:16;;;;;;;15.87;9.80;;;9.80;99.90;;;;;;5055829;28;20447;-63
2023/03/25 10:37:43;;;;;;;8.63;3.50;;;9.90;99.90;;;;;;5055228;28;20458;-63
2023/03/25 10:40:19;;;;;;;12.10;3.20;;;9.90;99.90;;;;;;5059064;28;20466;-63
2023/03/25 10:42:58;;;;;;;7.60;2.90;;;9.90;99.90;;;;;;5077034;28;20457;-65
2023/03/25 10:45:26;;;;;;;7.23;2.80;;;9.90;99.90;;;;;;5061150;28;20462;-64
2023/03/25 10:48:11;;;;;;;7.53;3.23;;;9.80;99.90;;;;;;5057073;28;20461;-61
2023/03/25 10:50:40;;;;;;;8.30;4.00;;;9.80;99.90;;;;;;5054620;28;20490;-63
2023/03/25 10:53:10;;;;;;;8.83;4.70;;;10.00;99.90;;;;;;5062125;28;20461;-62
2023/03/25 10:55:40;;;;;;;10.60;3.77;;;10.30;99.90;;;;;;5067194;28;20459;-62
2023/03/25 10:58:16;;;;;;;8.00;4.13;;;11.00;99.90;;;;;;5057522;28;21663;-59
2023/03/25 11:00:43;;;;;;;13.23;4.17;;;10.90;99.90;;;;;;5056033;28;20515;-58
2023/03/25 11:03:17;;;;;;;14.47;5.03;;;10.80;99.90;;;;;;5056065;28;20462;-62
2023/03/25 11:05:45;;;;;;;10.53;3.70;;;10.50;99.90;;;;;;5057451;28;20496;-63
2023/03/25 11:08:14;;;;;;;9.90;3.70;;;10.50;99.90;;;;;;5054985;28;20476;-59
2023/03/25 11:10:50;;;;;;;8.73;3.10;;;10.40;99.90;;;;;;5054072;28;20486;-63
2023/03/25 11:13:21;;;;;;;5.93;3.23;;;10.30;99.90;;;;;;5056040;28;20481;-64
2023/03/25 11:15:48;;;;;;;3.83;2.20;;;10.30;99.90;;;;;;5057158;28;20938;-64
2023/03/25 11:18:22;;;;;;;6.80;3.43;;;10.20;99.90;;;;;;5057355;28;20527;-62
2023/03/25 11:20:51;;;;;;;11.17;3.73;;;10.10;99.90;;;;;;5057159;28;20971;-58
2023/03/25 11:23:25;;;;;;;13.50;3.90;;;10.20;99.90;;;;;;5057775;28;20828;-62
2023/03/25 11:25:54;;;;;;;7.57;2.90;;;10.20;99.90;;;;;;5055726;28;20462;-61
2023/03/25 11:28:33;;;;;;;7.07;3.10;;;10.10;99.90;;;;;;5054496;28;20458;-62
2023/03/25 11:31:12;;;;;;;12.67;3.83;;;10.30;99.90;;;;;;5057878;28;20500;-60
2023/03/25 11:33:40;;;;;;;9.03;2.87;;;10.50;99.90;;;;;;5042902;28;20965;-62
2023/03/25 11:36:22;;;;;;;8.43;3.60;;;10.70;99.90;;;;;;5041684;28;20470;-62
2023/03/25 11:38:55;;;;;;;10.43;3.60;;;10.80;99.90;;;;;;5039812;28;20481;-61
2023/03/25 11:41:23;;;;;;;8.00;3.60;;;10.80;99.90;;;;;;5040687;28;20459;-61
2023/03/25 11:43:51;;;;;;;13.87;3.50;;;10.70;99.90;;;;;;5041729;28;20469;-62
2023/03/25 11:46:21;;;;;;;10.70;4.20;;;10.40;99.90;;;;;;5048053;28;20466;-56
2023/03/25 11:48:49;;;;;;;7.57;2.50;;;10.20;99.90;;;;;;5056383;28;20470;-62
2023/03/25 11:51:21;;;;;;;7.90;3.37;;;10.10;99.90;;;;;;5054561;28;20478;-62
2023/03/25 11:53:53;;;;;;;8.50;3.17;;;10.00;99.90;;;;;;5053020;28;20763;-62
2023/03/25 11:56:24;;;;;;;8.13;4.23;;;9.90;99.90;;;;;;5055799;28;20778;-63
2023/03/25 11:58:57;;;;;;;9.57;4.40;;;9.70;99.90;;;;;;5054784;28;20477;-63
2023/03/25 12:01:28;;;;;;;15.60;3.40;;;9.60;99.90;;;;;;5052478;28;20458;-63
2023/03/25 12:04:14;;;;;;;12.90;4.50;;;9.40;99.90;;;;;;5068171;28;20955;-64
2023/03/25 12:06:57;;;;;;;6.87;3.90;;;9.20;99.90;;;;;;5051113;28;20792;-63
2023/03/25 12:09:25;;;;;;;9.40;3.80;;;9.20;99.90;;;;;;5050785;28;20458;-66
2023/03/25 12:12:10;;;;;;;9.87;3.47;;;9.10;99.90;;;;;;5053310;28;20478;-66
2023/03/25 12:14:51;;;;;;;11.23;4.60;;;9.10;99.90;;;;;;5050986;28;20472;-64
2023/03/25 12:17:28;;;;;;;11.50;3.10;;;9.30;1.00;;;;;;5051783;28;20772;-64
2023/03/25 12:20:10;;;;;;;9.30;3.70;;;9.40;99.90;;;;;;5051053;28;20465;-63
2023/03/25 12:22:55;;;;;;;11.20;3.40;;;9.40;99.90;;;;;;5051977;28;20497;-63
2023/03/25 12:25:31;;;;;;;7.13;3.00;;;9.40;99.90;;;;;;5053858;28;20485;-62
2023/03/25 12:28:20;;;;;;;7.20;3.33;;;9.30;99.90;;;;;;5054724;28;20522;-63
2023/03/25 12:30:58;;;;;;;7.47;3.40;;;9.30;99.90;;;;;;5009337;28;20470;-61
2023/03/25 12:33:37;;;;;;;12.00;4.00;;;9.30;99.90;;;;;;5050149;28;20455;-64
2023/03/25 12:36:20;;;;;;;7.17;3.13;;;9.10;99.90;;;;;;5055571;28;20458;-64
2023/03/25 12:39:01;;;;;;;6.73;3.33;;;9.20;99.90;;;;;;5051261;28;20458;-62
2023/03/25 12:41:35;;;;;;;11.43;4.40;;;9.20;99.90;;;;;;5051264;28;20493;-64
2023/03/25 12:44:06;;;;;;;7.63;3.27;;;9.30;99.90;;;;;;5053857;28;20458;-63
2023/03/25 12:47:08;;;;;;;10.53;3.30;;;9.50;1.00;;;;;;5054198;28;20457;-62
2023/03/25 12:49:58;;;;;;;6.63;2.97;;;10.00;1.00;;;;;;5053541;28;20763;-63
2023/03/25 12:52:35;;;;;;;9.43;2.90;;;10.40;99.90;;;;;;5052604;28;20801;-55
2023/03/25 12:55:28;;;;;;;10.40;5.07;;;10.60;99.90;;;;;;5057699;28;20456;-61
2023/03/25 12:58:10;;;;;;;8.93;3.63;;;11.20;99.90;;;;;;5056805;28;20458;-62
2023/03/25 13:00:47;;;;;;;11.33;3.20;;;11.60;99.90;;;;;;5056865;28;20458;-59
2023/03/25 13:03:42;;;;;;;7.90;2.83;;;12.20;99.90;;;;;;5056403;28;20747;-60
2023/03/25 13:06:18;;;;;;;8.40;3.90;;;12.20;99.90;;;;;;5055514;28;20454;-63
2023/03/25 13:08:52;;;;;;;9.73;3.57;;;12.00;99.90;;;;;;5056585;28;20449;-64
2023/03/25 13:11:26;;;;;;;7.10;3.50;;;12.40;99.90;;;;;;5058453;28;20489;-63
2023/03/25 13:14:00;;;;;;;8.60;4.20;;;12.80;99.90;;;;;;5057288;28;20524;-65
2023/03/25 13:16:35;;;;;;;11.50;4.50;;;12.90;99.90;;;;;;5056461;28;20917;-65
2023/03/25 13:19:07;;;;;;;9.07;3.97;;;12.70;99.90;;;;;;5058664;28;20457;-65